sensor_id;sensor_type;location;lat;lon;timestamp;pressure;altitude;pressure_sealevel;temperature;humidity
75551;BME280;65071;53.082;18.218;2023-03-19T00:00:43;101254.17;;;4.74;65.08
75551;BME280;65071;53.082;18.218;2023-03-19T00:03:30;101253.54;;;4.76;65.06
75551;BME280;65071;53.082;18.218;2023-03-19T00:05:56;101252.67;;;4.75;65.83
75551;BME280;65071;53.082;18.218;2023-03-19T00:08:23;101253.34;;;4.74;66.55
75551;BME280;65071;53.082;18.218;2023-03-19T00:10:50;101257.01;;;4.69;66.88
75551;BME280;65071;53.082;18.218;2023-03-19T00:13:18;101262.10;;;4.65;66.69
75551;BME280;65071;53.082;18.218;2023-03-19T00:15:45;101263.27;;;4.59;66.59
75551;BME280;65071;53.082;18.218;2023-03-19T00:18:12;101262.25;;;4.53;66.29
75551;BME280;65071;53.082;18.218;2023-03-19T00:20:40;101260.72;;;4.47;66.54
75551;BME280;65071;53.082;18.218;2023-03-19T00:23:06;101262.70;;;4.38;66.66
75551;BME280;65071;53.082;18.218;2023-03-19T00:25:34;101265.70;;;4.30;66.91
75551;BME280;65071;53.082;18.218;2023-03-19T00:28:01;101270.35;;;4.22;66.95
75551;BME280;65071;53.082;18.218;2023-03-19T00:30:28;101271.66;;;4.16;66.79
75551;BME280;65071;53.082;18.218;2023-03-19T00:32:55;101268.60;;;4.10;66.80
75551;BME280;65071;53.082;18.218;2023-03-19T00:35:22;101271.88;;;4.07;67.22
75551;BME280;65071;53.082;18.218;2023-03-19T00:37:49;101267.76;;;4.02;66.86
75551;BME280;65071;53.082;18.218;2023-03-19T00:40:15;101269.05;;;3.98;67.47
75551;BME280;65071;53.082;18.218;2023-03-19T00:42:42;101267.62;;;3.93;67.19
75551;BME280;65071;53.082;18.218;2023-03-19T00:45:10;101270.23;;;3.89;67.28
75551;BME280;65071;53.082;18.218;2023-03-19T00:47:37;101265.21;;;3.84;67.39
75551;BME280;65071;53.082;18.218;2023-03-19T00:50:04;101264.59;;;3.80;67.34
75551;BME280;65071;53.082;18.218;2023-03-19T00:52:32;101267.48;;;3.76;67.29
75551;BME280;65071;53.082;18.218;2023-03-19T00:54:59;101273.09;;;3.75;67.10
75551;BME280;65071;53.082;18.218;2023-03-19T00:57:26;101267.24;;;3.74;67.30
75551;BME280;65071;53.082;18.218;2023-03-19T00:59:52;101269.33;;;3.75;67.13
75551;BME280;65071;53.082;18.218;2023-03-19T01:02:19;101264.42;;;3.74;67.61
75551;BME280;65071;53.082;18.218;2023-03-19T01:04:47;101262.42;;;3.72;68.40
75551;BME280;65071;53.082;18.218;2023-03-19T01:07:14;101262.85;;;3.68;67.77
75551;BME280;65071;53.082;18.218;2023-03-19T01:09:41;101262.42;;;3.66;67.89
75551;BME280;65071;53.082;18.218;2023-03-19T01:12:08;101259.94;;;3.63;68.58
75551;BME280;65071;53.082;18.218;2023-03-19T01:14:35;101260.87;;;3.60;67.88
75551;BME280;65071;53.082;18.218;2023-03-19T01:17:05;101261.39;;;3.57;68.11
75551;BME280;65071;53.082;18.218;2023-03-19T01:19:32;101261.83;;;3.56;68.38
75551;BME280;65071;53.082;18.218;2023-03-19T01:21:59;101263.05;;;3.54;68.86
75551;BME280;65071;53.082;18.218;2023-03-19T01:24:28;101265.12;;;3.49;68.48
75551;BME280;65071;53.082;18.218;2023-03-19T01:26:55;101269.98;;;3.45;68.91
75551;BME280;65071;53.082;18.218;2023-03-19T01:29:33;101274.13;;;3.38;69.29
75551;BME280;65071;53.082;18.218;2023-03-19T01:32:08;101274.66;;;3.38;68.44
75551;BME280;65071;53.082;18.218;2023-03-19T01:34:58;101272.58;;;3.41;68.21
75551;BME280;65071;53.082;18.218;2023-03-19T01:37:24;101267.05;;;3.41;68.34
75551;BME280;65071;53.082;18.218;2023-03-19T01:39:51;101271.11;;;3.38;69.90
75551;BME280;65071;53.082;18.218;2023-03-19T01:42:18;101274.08;;;3.34;69.42
75551;BME280;65071;53.082;18.218;2023-03-19T01:44:54;101274.80;;;3.31;69.60
75551;BME280;65071;53.082;18.218;2023-03-19T01:47:36;101271.40;;;3.28;68.98
75551;BME280;65071;53.082;18.218;2023-03-19T01:50:25;101269.89;;;3.26;69.14
75551;BME280;65071;53.082;18.218;2023-03-19T01:53:14;101273.70;;;3.25;69.64
75551;BME280;65071;53.082;18.218;2023-03-19T01:55:55;101279.48;;;3.24;69.48
75551;BME280;65071;53.082;18.218;2023-03-19T01:58:40;101282.36;;;3.21;70.20
75551;BME280;65071;53.082;18.218;2023-03-19T02:01:40;101281.74;;;3.16;69.92
75551;BME280;65071;53.082;18.218;2023-03-19T02:04:08;101282.13;;;3.13;69.60
75551;BME280;65071;53.082;18.218;2023-03-19T02:06:36;101281.15;;;3.09;70.05
75551;BME280;65071;53.082;18.218;2023-03-19T02:09:04;101280.45;;;3.05;69.35
75551;BME280;65071;53.082;18.218;2023-03-19T02:11:31;101279.89;;;3.03;69.34
75551;BME280;65071;53.082;18.218;2023-03-19T02:13:59;101273.42;;;3.01;69.50
75551;BME280;65071;53.082;18.218;2023-03-19T02:16:26;101273.12;;;3.00;69.43
75551;BME280;65071;53.082;18.218;2023-03-19T02:18:53;101271.00;;;3.00;69.37
75551;BME280;65071;53.082;18.218;2023-03-19T02:21:21;101268.41;;;2.99;69.83
75551;BME280;65071;53.082;18.218;2023-03-19T02:23:52;101266.05;;;3.00;69.47
75551;BME280;65071;53.082;18.218;2023-03-19T02:26:26;101262.06;;;3.01;69.35
75551;BME280;65071;53.082;18.218;2023-03-19T02:28:59;101262.92;;;3.02;70.18
75551;BME280;65071;53.082;18.218;2023-03-19T02:31:29;101262.52;;;3.00;70.58
75551;BME280;65071;53.082;18.218;2023-03-19T02:33:57;101256.98;;;2.97;70.16
75551;BME280;65071;53.082;18.218;2023-03-19T02:36:29;101252.23;;;2.96;69.78
75551;BME280;65071;53.082;18.218;2023-03-19T02:38:59;101252.06;;;2.96;70.09
75551;BME280;65071;53.082;18.218;2023-03-19T02:41:28;101255.63;;;2.96;70.19
75551;BME280;65071;53.082;18.218;2023-03-19T02:43:58;101258.47;;;2.96;70.88
75551;BME280;65071;53.082;18.218;2023-03-19T02:46:28;101260.53;;;2.94;71.10
75551;BME280;65071;53.082;18.218;2023-03-19T02:48:54;101269.59;;;2.91;71.90
75551;BME280;65071;53.082;18.218;2023-03-19T02:51:21;101271.11;;;2.89;71.14
75551;BME280;65071;53.082;18.218;2023-03-19T02:53:47;101272.85;;;2.90;70.95
75551;BME280;65071;53.082;18.218;2023-03-19T02:56:14;101274.53;;;2.95;70.77
75551;BME280;65071;53.082;18.218;2023-03-19T02:58:41;101277.23;;;3.00;70.90
75551;BME280;65071;53.082;18.218;2023-03-19T03:01:07;101277.59;;;3.03;72.36
75551;BME280;65071;53.082;18.218;2023-03-19T03:03:34;101274.15;;;3.04;71.45
75551;BME280;65071;53.082;18.218;2023-03-19T03:06:01;101276.04;;;3.08;70.86
75551;BME280;65071;53.082;18.218;2023-03-19T03:08:27;101277.63;;;3.14;70.27
75551;BME280;65071;53.082;18.218;2023-03-19T03:10:54;101271.34;;;3.21;70.08
75551;BME280;65071;53.082;18.218;2023-03-19T03:13:21;101269.50;;;3.27;70.19
75551;BME280;65071;53.082;18.218;2023-03-19T03:15:47;101267.79;;;3.32;70.04
75551;BME280;65071;53.082;18.218;2023-03-19T03:18:14;101273.94;;;3.36;71.72
75551;BME280;65071;53.082;18.218;2023-03-19T03:20:41;101274.06;;;3.37;71.48
75551;BME280;65071;53.082;18.218;2023-03-19T03:23:08;101272.93;;;3.38;70.83
75551;BME280;65071;53.082;18.218;2023-03-19T03:25:36;101268.71;;;3.40;70.46
75551;BME280;65071;53.082;18.218;2023-03-19T03:28:02;101268.70;;;3.43;70.29
75551;BME280;65071;53.082;18.218;2023-03-19T03:30:29;101266.92;;;3.43;71.35
75551;BME280;65071;53.082;18.218;2023-03-19T03:32:56;101270.45;;;3.43;70.59
75551;BME280;65071;53.082;18.218;2023-03-19T03:35:22;101274.72;;;3.43;70.22
75551;BME280;65071;53.082;18.218;2023-03-19T03:37:50;101277.11;;;3.45;69.70
75551;BME280;65071;53.082;18.218;2023-03-19T03:40:17;101275.02;;;3.47;69.90
75551;BME280;65071;53.082;18.218;2023-03-19T03:42:44;101269.91;;;3.49;69.93
75551;BME280;65071;53.082;18.218;2023-03-19T03:45:11;101277.20;;;3.52;69.56
75551;BME280;65071;53.082;18.218;2023-03-19T03:47:39;101281.73;;;3.53;70.09
75551;BME280;65071;53.082;18.218;2023-03-19T03:50:06;101284.15;;;3.54;69.87
75551;BME280;65071;53.082;18.218;2023-03-19T03:52:37;101286.74;;;3.55;70.29
75551;BME280;65071;53.082;18.218;2023-03-19T03:55:04;101287.32;;;3.55;70.04
75551;BME280;65071;53.082;18.218;2023-03-19T03:57:31;101285.80;;;3.56;70.12
75551;BME280;65071;53.082;18.218;2023-03-19T03:59:57;101279.67;;;3.57;70.20
75551;BME280;65071;53.082;18.218;2023-03-19T04:02:24;101275.21;;;3.58;71.05
75551;BME280;65071;53.082;18.218;2023-03-19T04:04:52;101271.27;;;3.56;73.13
75551;BME280;65071;53.082;18.218;2023-03-19T04:07:19;101271.77;;;3.53;72.20
75551;BME280;65071;53.082;18.218;2023-03-19T04:09:56;101279.35;;;3.51;71.95
75551;BME280;65071;53.082;18.218;2023-03-19T04:12:23;101278.40;;;3.50;73.77
75551;BME280;65071;53.082;18.218;2023-03-19T04:14:50;101282.34;;;3.46;72.96
75551;BME280;65071;53.082;18.218;2023-03-19T04:17:17;101281.21;;;3.45;72.44
75551;BME280;65071;53.082;18.218;2023-03-19T04:19:44;101282.23;;;3.43;71.99
75551;BME280;65071;53.082;18.218;2023-03-19T04:22:11;101284.04;;;3.42;71.91
75551;BME280;65071;53.082;18.218;2023-03-19T04:24:38;101284.24;;;3.42;71.60
75551;BME280;65071;53.082;18.218;2023-03-19T04:27:06;101282.12;;;3.41;71.48
75551;BME280;65071;53.082;18.218;2023-03-19T04:29:33;101285.55;;;3.41;71.23
75551;BME280;65071;53.082;18.218;2023-03-19T04:32:00;101288.99;;;3.39;70.67
75551;BME280;65071;53.082;18.218;2023-03-19T04:34:27;101292.00;;;3.37;70.96
75551;BME280;65071;53.082;18.218;2023-03-19T04:36:53;101289.85;;;3.34;72.30
75551;BME280;65071;53.082;18.218;2023-03-19T04:39:20;101288.27;;;3.29;72.89
75551;BME280;65071;53.082;18.218;2023-03-19T04:41:48;101290.19;;;3.24;72.40
75551;BME280;65071;53.082;18.218;2023-03-19T04:44:27;101298.49;;;3.18;72.55
75551;BME280;65071;53.082;18.218;2023-03-19T04:46:54;101302.98;;;3.15;72.86
75551;BME280;65071;53.082;18.218;2023-03-19T04:49:21;101305.81;;;3.12;71.89
75551;BME280;65071;53.082;18.218;2023-03-19T04:51:48;101302.20;;;3.10;71.56
75551;BME280;65071;53.082;18.218;2023-03-19T04:54:15;101298.77;;;3.11;71.72
75551;BME280;65071;53.082;18.218;2023-03-19T04:56:42;101298.14;;;3.13;71.53
75551;BME280;65071;53.082;18.218;2023-03-19T04:59:09;101299.21;;;3.13;71.78
75551;BME280;65071;53.082;18.218;2023-03-19T05:01:36;101293.88;;;3.13;71.89
75551;BME280;65071;53.082;18.218;2023-03-19T05:04:05;101292.56;;;3.11;71.56
75551;BME280;65071;53.082;18.218;2023-03-19T05:06:34;101293.11;;;3.11;71.64
75551;BME280;65071;53.082;18.218;2023-03-19T05:09:02;101292.30;;;3.09;72.23
75551;BME280;65071;53.082;18.218;2023-03-19T05:11:29;101290.83;;;3.07;71.67
75551;BME280;65071;53.082;18.218;2023-03-19T05:14:02;101290.41;;;3.08;71.61
75551;BME280;65071;53.082;18.218;2023-03-19T05:16:35;101290.35;;;3.09;72.20
75551;BME280;65071;53.082;18.218;2023-03-19T05:19:02;101288.86;;;3.11;71.83
75551;BME280;65071;53.082;18.218;2023-03-19T05:21:30;101290.73;;;3.14;71.97
75551;BME280;65071;53.082;18.218;2023-03-19T05:23:57;101295.34;;;3.21;71.62
75551;BME280;65071;53.082;18.218;2023-03-19T05:26:25;101298.34;;;3.27;72.28
75551;BME280;65071;53.082;18.218;2023-03-19T05:29:20;101289.73;;;3.31;72.48
75551;BME280;65071;53.082;18.218;2023-03-19T05:31:58;101286.61;;;3.38;71.74
75551;BME280;65071;53.082;18.218;2023-03-19T05:34:28;101283.95;;;3.44;72.32
75551;BME280;65071;53.082;18.218;2023-03-19T05:36:55;101290.09;;;3.50;72.22
75551;BME280;65071;53.082;18.218;2023-03-19T05:39:23;101289.22;;;3.56;73.05
75551;BME280;65071;53.082;18.218;2023-03-19T05:41:50;101292.21;;;3.56;74.35
75551;BME280;65071;53.082;18.218;2023-03-19T05:44:20;101294.45;;;3.57;73.22
75551;BME280;65071;53.082;18.218;2023-03-19T05:46:49;101296.00;;;3.64;72.46
75551;BME280;65071;53.082;18.218;2023-03-19T05:49:16;101297.12;;;3.72;72.21
75551;BME280;65071;53.082;18.218;2023-03-19T05:51:43;101298.17;;;3.78;72.33
75551;BME280;65071;53.082;18.218;2023-03-19T05:54:10;101302.59;;;3.83;72.79
75551;BME280;65071;53.082;18.218;2023-03-19T05:56:45;101304.96;;;3.88;72.35
75551;BME280;65071;53.082;18.218;2023-03-19T05:59:45;101306.27;;;3.95;71.97
75551;BME280;65071;53.082;18.218;2023-03-19T06:02:21;101307.02;;;4.03;71.75
75551;BME280;65071;53.082;18.218;2023-03-19T06:04:48;101308.41;;;4.11;71.43
75551;BME280;65071;53.082;18.218;2023-03-19T06:07:16;101312.46;;;4.18;72.03
75551;BME280;65071;53.082;18.218;2023-03-19T06:09:42;101317.08;;;4.20;71.59
75551;BME280;65071;53.082;18.218;2023-03-19T06:12:10;101316.05;;;4.25;71.52
75551;BME280;65071;53.082;18.218;2023-03-19T06:14:43;101324.55;;;4.31;71.58
75551;BME280;65071;53.082;18.218;2023-03-19T06:17:29;101326.30;;;4.35;72.33
75551;BME280;65071;53.082;18.218;2023-03-19T06:19:59;101329.20;;;4.36;72.29
75551;BME280;65071;53.082;18.218;2023-03-19T06:22:26;101329.30;;;4.41;71.89
75551;BME280;65071;53.082;18.218;2023-03-19T06:24:53;101328.45;;;4.46;71.74
75551;BME280;65071;53.082;18.218;2023-03-19T06:27:20;101326.23;;;4.52;71.52
75551;BME280;65071;53.082;18.218;2023-03-19T06:29:47;101325.48;;;4.58;71.40
75551;BME280;65071;53.082;18.218;2023-03-19T06:32:18;101331.97;;;4.65;71.28
75551;BME280;65071;53.082;18.218;2023-03-19T06:34:47;101331.19;;;4.74;70.77
75551;BME280;65071;53.082;18.218;2023-03-19T06:37:14;101331.74;;;4.87;70.71
75551;BME280;65071;53.082;18.218;2023-03-19T06:39:42;101329.09;;;4.92;70.16
75551;BME280;65071;53.082;18.218;2023-03-19T06:42:09;101330.89;;;4.97;70.09
75551;BME280;65071;53.082;18.218;2023-03-19T06:44:36;101328.54;;;5.05;69.81
75551;BME280;65071;53.082;18.218;2023-03-19T06:47:03;101329.05;;;5.18;69.54
75551;BME280;65071;53.082;18.218;2023-03-19T06:49:30;101326.66;;;5.30;69.28
75551;BME280;65071;53.082;18.218;2023-03-19T06:51:58;101333.55;;;5.41;68.93
75551;BME280;65071;53.082;18.218;2023-03-19T06:54:25;101335.68;;;5.51;68.71
75551;BME280;65071;53.082;18.218;2023-03-19T06:56:52;101340.31;;;5.59;68.43
75551;BME280;65071;53.082;18.218;2023-03-19T06:59:18;101345.13;;;5.61;67.59
75551;BME280;65071;53.082;18.218;2023-03-19T07:01:45;101342.64;;;5.68;68.07
75551;BME280;65071;53.082;18.218;2023-03-19T07:04:12;101341.78;;;5.73;68.21
75551;BME280;65071;53.082;18.218;2023-03-19T07:06:38;101344.88;;;5.83;68.30
75551;BME280;65071;53.082;18.218;2023-03-19T07:09:05;101340.92;;;5.98;68.03
75551;BME280;65071;53.082;18.218;2023-03-19T07:11:32;101338.93;;;6.18;67.83
75551;BME280;65071;53.082;18.218;2023-03-19T07:13:59;101342.48;;;6.33;67.21
75551;BME280;65071;53.082;18.218;2023-03-19T07:16:26;101347.05;;;6.53;67.21
75551;BME280;65071;53.082;18.218;2023-03-19T07:18:52;101347.52;;;6.71;66.98
75551;BME280;65071;53.082;18.218;2023-03-19T07:21:19;101343.04;;;6.83;65.94
75551;BME280;65071;53.082;18.218;2023-03-19T07:23:47;101337.94;;;6.91;65.73
75551;BME280;65071;53.082;18.218;2023-03-19T07:26:14;101336.55;;;7.04;65.87
75551;BME280;65071;53.082;18.218;2023-03-19T07:28:41;101335.54;;;7.20;65.49
75551;BME280;65071;53.082;18.218;2023-03-19T07:31:08;101335.53;;;7.34;65.32
75551;BME280;65071;53.082;18.218;2023-03-19T07:33:34;101333.70;;;7.50;64.18
75551;BME280;65071;53.082;18.218;2023-03-19T07:36:01;101335.50;;;7.66;64.53
75551;BME280;65071;53.082;18.218;2023-03-19T07:38:28;101339.85;;;7.81;64.25
75551;BME280;65071;53.082;18.218;2023-03-19T07:40:55;101346.29;;;7.99;63.83
75551;BME280;65071;53.082;18.218;2023-03-19T07:43:22;101349.66;;;8.15;64.08
75551;BME280;65071;53.082;18.218;2023-03-19T07:45:48;101349.77;;;8.25;62.57
75551;BME280;65071;53.082;18.218;2023-03-19T07:48:15;101352.06;;;8.34;61.88
75551;BME280;65071;53.082;18.218;2023-03-19T07:50:43;101354.06;;;8.40;61.63
75551;BME280;65071;53.082;18.218;2023-03-19T07:53:10;101351.54;;;8.47;62.68
75551;BME280;65071;53.082;18.218;2023-03-19T07:55:36;101358.42;;;8.50;61.73
75551;BME280;65071;53.082;18.218;2023-03-19T07:58:03;101357.71;;;8.52;61.60
75551;BME280;65071;53.082;18.218;2023-03-19T08:00:30;101361.14;;;8.56;61.43
75551;BME280;65071;53.082;18.218;2023-03-19T08:02:58;101355.09;;;8.62;61.05
75551;BME280;65071;53.082;18.218;2023-03-19T08:05:25;101353.08;;;8.69;61.23
75551;BME280;65071;53.082;18.218;2023-03-19T08:07:52;101347.83;;;8.83;61.41
75551;BME280;65071;53.082;18.218;2023-03-19T08:10:19;101349.16;;;8.99;60.90
75551;BME280;65071;53.082;18.218;2023-03-19T08:12:46;101348.82;;;9.16;60.37
75551;BME280;65071;53.082;18.218;2023-03-19T08:15:13;101347.38;;;9.30;59.67
75551;BME280;65071;53.082;18.218;2023-03-19T08:17:40;101346.30;;;9.45;60.69
75551;BME280;65071;53.082;18.218;2023-03-19T08:20:09;101345.20;;;9.53;59.43
75551;BME280;65071;53.082;18.218;2023-03-19T08:22:37;101338.55;;;9.61;59.96
75551;BME280;65071;53.082;18.218;2023-03-19T08:25:05;101335.27;;;9.74;59.48
75551;BME280;65071;53.082;18.218;2023-03-19T08:27:33;101336.32;;;9.83;58.90
75551;BME280;65071;53.082;18.218;2023-03-19T08:30:03;101330.75;;;9.91;59.26
75551;BME280;65071;53.082;18.218;2023-03-19T08:32:30;101337.26;;;9.98;59.14
75551;BME280;65071;53.082;18.218;2023-03-19T08:34:56;101333.58;;;10.09;59.00
75551;BME280;65071;53.082;18.218;2023-03-19T08:37:23;101337.86;;;10.20;58.30
75551;BME280;65071;53.082;18.218;2023-03-19T08:39:51;101336.55;;;10.31;58.62
75551;BME280;65071;53.082;18.218;2023-03-19T08:42:19;101338.09;;;10.45;58.79
75551;BME280;65071;53.082;18.218;2023-03-19T08:44:47;101338.80;;;10.59;58.58
75551;BME280;65071;53.082;18.218;2023-03-19T08:47:14;101333.59;;;10.73;58.12
75551;BME280;65071;53.082;18.218;2023-03-19T08:49:41;101330.35;;;10.86;57.56
75551;BME280;65071;53.082;18.218;2023-03-19T08:52:08;101328.88;;;11.00;56.55
75551;BME280;65071;53.082;18.218;2023-03-19T08:54:35;101327.02;;;11.10;56.10
75551;BME280;65071;53.082;18.218;2023-03-19T08:57:02;101328.47;;;11.20;55.36
75551;BME280;65071;53.082;18.218;2023-03-19T08:59:29;101326.23;;;11.32;55.79
75551;BME280;65071;53.082;18.218;2023-03-19T09:01:57;101327.06;;;11.44;55.42
75551;BME280;65071;53.082;18.218;2023-03-19T09:04:23;101328.27;;;11.56;54.51
75551;BME280;65071;53.082;18.218;2023-03-19T09:06:51;101326.31;;;11.67;54.35
75551;BME280;65071;53.082;18.218;2023-03-19T09:09:18;101325.23;;;11.77;53.18
75551;BME280;65071;53.082;18.218;2023-03-19T09:11:46;101323.15;;;11.91;53.86
75551;BME280;65071;53.082;18.218;2023-03-19T09:14:14;101324.01;;;12.02;53.72
75551;BME280;65071;53.082;18.218;2023-03-19T09:16:42;101323.48;;;12.09;53.53
75551;BME280;65071;53.082;18.218;2023-03-19T09:19:09;101322.00;;;12.17;53.86
75551;BME280;65071;53.082;18.218;2023-03-19T09:21:36;101323.07;;;12.21;54.44
75551;BME280;65071;53.082;18.218;2023-03-19T09:24:03;101320.80;;;12.27;54.50
75551;BME280;65071;53.082;18.218;2023-03-19T09:26:30;101322.95;;;12.29;54.14
75551;BME280;65071;53.082;18.218;2023-03-19T09:28:57;101321.00;;;12.36;54.08
75551;BME280;65071;53.082;18.218;2023-03-19T09:31:24;101321.27;;;12.44;54.20
75551;BME280;65071;53.082;18.218;2023-03-19T09:33:51;101318.83;;;12.52;53.91
75551;BME280;65071;53.082;18.218;2023-03-19T09:36:17;101316.85;;;12.58;53.49
75551;BME280;65071;53.082;18.218;2023-03-19T09:38:44;101314.30;;;12.52;52.97
75551;BME280;65071;53.082;18.218;2023-03-19T09:41:19;101311.55;;;12.53;53.20
75551;BME280;65071;53.082;18.218;2023-03-19T09:44:09;101312.86;;;12.49;52.26
75551;BME280;65071;53.082;18.218;2023-03-19T09:46:44;101312.99;;;12.64;52.47
75551;BME280;65071;53.082;18.218;2023-03-19T09:49:29;101313.05;;;12.75;52.89
75551;BME280;65071;53.082;18.218;2023-03-19T09:54:31;101305.96;;;12.88;52.42
75551;BME280;65071;53.082;18.218;2023-03-19T09:57:00;101305.54;;;12.94;52.78
75551;BME280;65071;53.082;18.218;2023-03-19T09:59:27;101304.53;;;13.02;53.05
75551;BME280;65071;53.082;18.218;2023-03-19T10:12:52;101306.39;;;13.61;51.28
75551;BME280;65071;53.082;18.218;2023-03-19T10:15:30;101302.60;;;13.70;51.04
75551;BME280;65071;53.082;18.218;2023-03-19T10:18:17;101304.84;;;13.78;51.47
75551;BME280;65071;53.082;18.218;2023-03-19T10:20:52;101294.73;;;13.83;50.42
75551;BME280;65071;53.082;18.218;2023-03-19T10:26:14;101293.92;;;13.97;50.93
75551;BME280;65071;53.082;18.218;2023-03-19T10:28:43;101297.27;;;14.06;51.43
75551;BME280;65071;53.082;18.218;2023-03-19T10:36:45;101296.14;;;14.30;50.56
75551;BME280;65071;53.082;18.218;2023-03-19T10:39:15;101293.38;;;14.41;50.70
75551;BME280;65071;53.082;18.218;2023-03-19T10:41:48;101286.92;;;14.52;50.07
75551;BME280;65071;53.082;18.218;2023-03-19T10:44:30;101281.63;;;14.61;49.80
75551;BME280;65071;53.082;18.218;2023-03-19T10:47:11;101284.55;;;14.77;50.10
75551;BME280;65071;53.082;18.218;2023-03-19T10:49:38;101283.10;;;14.93;49.63
75551;BME280;65071;53.082;18.218;2023-03-19T10:54:47;101287.04;;;15.20;46.92
75551;BME280;65071;53.082;18.218;2023-03-19T10:57:23;101282.92;;;15.27;46.38
75551;BME280;65071;53.082;18.218;2023-03-19T10:59:51;101282.43;;;15.38;47.09
75551;BME280;65071;53.082;18.218;2023-03-19T11:02:21;101276.65;;;15.48;47.22
75551;BME280;65071;53.082;18.218;2023-03-19T11:05:06;101271.16;;;15.57;46.52
75551;BME280;65071;53.082;18.218;2023-03-19T11:07:35;101270.84;;;15.65;46.12
75551;BME280;65071;53.082;18.218;2023-03-19T11:10:02;101268.96;;;15.70;45.98
75551;BME280;65071;53.082;18.218;2023-03-19T11:12:33;101270.45;;;15.70;45.12
75551;BME280;65071;53.082;18.218;2023-03-19T11:15:03;101270.11;;;15.68;45.42
75551;BME280;65071;53.082;18.218;2023-03-19T11:17:46;101268.59;;;15.72;44.96
75551;BME280;65071;53.082;18.218;2023-03-19T11:20:25;101269.69;;;15.78;45.67
75551;BME280;65071;53.082;18.218;2023-03-19T11:22:54;101268.89;;;15.85;44.48
75551;BME280;65071;53.082;18.218;2023-03-19T11:25:28;101267.56;;;15.95;44.79
75551;BME280;65071;53.082;18.218;2023-03-19T11:28:02;101263.17;;;16.07;44.76
75551;BME280;65071;53.082;18.218;2023-03-19T11:30:37;101262.34;;;16.18;44.55
75551;BME280;65071;53.082;18.218;2023-03-19T11:33:37;101258.46;;;16.31;45.09
75551;BME280;65071;53.082;18.218;2023-03-19T11:36:11;101250.42;;;16.39;43.63
75551;BME280;65071;53.082;18.218;2023-03-19T11:41:46;101246.50;;;16.59;43.76
75551;BME280;65071;53.082;18.218;2023-03-19T11:44:28;101246.90;;;16.69;43.39
75551;BME280;65071;53.082;18.218;2023-03-19T11:47:06;101246.79;;;16.76;42.57
75551;BME280;65071;53.082;18.218;2023-03-19T12:03:33;101243.08;;;17.19;40.95
75551;BME280;65071;53.082;18.218;2023-03-19T12:17:02;101246.48;;;17.33;41.68
75551;BME280;65071;53.082;18.218;2023-03-19T12:22:58;101247.05;;;17.42;41.88
75551;BME280;65071;53.082;18.218;2023-03-19T12:25:48;101243.13;;;17.40;42.04
75551;BME280;65071;53.082;18.218;2023-03-19T12:28:25;101237.48;;;17.35;42.20
75551;BME280;65071;53.082;18.218;2023-03-19T12:31:15;101238.75;;;17.37;42.94
75551;BME280;65071;53.082;18.218;2023-03-19T12:33:51;101237.30;;;17.40;42.89
75551;BME280;65071;53.082;18.218;2023-03-19T12:36:27;101234.30;;;17.39;42.51
75551;BME280;65071;53.082;18.218;2023-03-19T12:39:01;101228.97;;;17.37;42.84
75551;BME280;65071;53.082;18.218;2023-03-19T12:41:32;101229.05;;;17.39;43.03
75551;BME280;65071;53.082;18.218;2023-03-19T12:44:09;101225.38;;;17.42;43.09
75551;BME280;65071;53.082;18.218;2023-03-19T12:46:49;101220.02;;;17.47;42.77
75551;BME280;65071;53.082;18.218;2023-03-19T12:49:57;101218.99;;;17.51;42.64
75551;BME280;65071;53.082;18.218;2023-03-19T12:55:13;101209.33;;;17.56;42.70
75551;BME280;65071;53.082;18.218;2023-03-19T12:58:03;101208.02;;;17.58;42.40
75551;BME280;65071;53.082;18.218;2023-03-19T13:00:53;101210.55;;;17.59;42.16
75551;BME280;65071;53.082;18.218;2023-03-19T13:06:34;101214.73;;;17.58;41.95
75551;BME280;65071;53.082;18.218;2023-03-19T13:09:19;101213.90;;;17.55;41.43
75551;BME280;65071;53.082;18.218;2023-03-19T13:12:03;101217.31;;;17.56;41.50
75551;BME280;65071;53.082;18.218;2023-03-19T13:14:54;101216.69;;;17.59;41.84
75551;BME280;65071;53.082;18.218;2023-03-19T13:20:19;101213.75;;;17.65;41.61
75551;BME280;65071;53.082;18.218;2023-03-19T13:23:01;101214.16;;;17.68;41.87
75551;BME280;65071;53.082;18.218;2023-03-19T13:25:40;101215.45;;;17.66;41.47
75551;BME280;65071;53.082;18.218;2023-03-19T13:28:11;101215.00;;;17.64;42.05
75551;BME280;65071;53.082;18.218;2023-03-19T13:31:04;101217.00;;;17.61;41.88
75551;BME280;65071;53.082;18.218;2023-03-19T13:33:33;101214.83;;;17.58;42.18
75551;BME280;65071;53.082;18.218;2023-03-19T13:36:03;101214.46;;;17.57;42.55
75551;BME280;65071;53.082;18.218;2023-03-19T13:38:39;101215.21;;;17.54;42.29
75551;BME280;65071;53.082;18.218;2023-03-19T13:43:59;101215.89;;;17.50;42.83
75551;BME280;65071;53.082;18.218;2023-03-19T13:46:34;101217.98;;;17.50;42.54
75551;BME280;65071;53.082;18.218;2023-03-19T13:49:21;101219.13;;;17.48;42.61
75551;BME280;65071;53.082;18.218;2023-03-19T13:54:44;101222.57;;;17.40;42.61
75551;BME280;65071;53.082;18.218;2023-03-19T13:59:43;101223.33;;;17.30;42.39
75551;BME280;65071;53.082;18.218;2023-03-19T14:04:57;101215.10;;;17.24;42.39
75551;BME280;65071;53.082;18.218;2023-03-19T14:07:28;101210.96;;;17.21;42.82
75551;BME280;65071;53.082;18.218;2023-03-19T14:12:30;101211.15;;;17.18;43.15
75551;BME280;65071;53.082;18.218;2023-03-19T14:17:52;101208.67;;;17.19;43.46
75551;BME280;65071;53.082;18.218;2023-03-19T14:20:25;101207.47;;;17.17;43.10
75551;BME280;65071;53.082;18.218;2023-03-19T14:28:23;101202.13;;;17.16;43.30
75551;BME280;65071;53.082;18.218;2023-03-19T14:30:53;101198.39;;;17.16;43.46